sensor_id;sensor_type;location;lat;lon;timestamp;P1;durP1;ratioP1;P2;durP2;ratioP2
38629;SDS011;24384;51.988;4.644;2022-12-18T00:00:25;116.43;;;36.43;;
38629;SDS011;24384;51.988;4.644;2022-12-18T00:03:09;129.00;;;36.13;;
38629;SDS011;24384;51.988;4.644;2022-12-18T00:06:02;154.00;;;44.80;;
38629;SDS011;24384;51.988;4.644;2022-12-18T00:08:49;139.40;;;37.13;;
38629;SDS011;24384;51.988;4.644;2022-12-18T00:11:32;199.47;;;41.73;;
38629;SDS011;24384;51.988;4.644;2022-12-18T00:14:13;210.68;;;40.53;;
38629;SDS011;24384;51.988;4.644;2022-12-18T00:16:52;168.80;;;35.07;;
38629;SDS011;24384;51.988;4.644;2022-12-18T00:19:55;189.18;;;42.35;;
38629;SDS011;24384;51.988;4.644;2022-12-18T00:22:41;185.20;;;40.67;;
38629;SDS011;24384;51.988;4.644;2022-12-18T00:25:22;236.90;;;48.47;;
38629;SDS011;24384;51.988;4.644;2022-12-18T00:27:58;188.53;;;43.23;;
38629;SDS011;24384;51.988;4.644;2022-12-18T00:30:41;211.07;;;48.73;;
38629;SDS011;24384;51.988;4.644;2022-12-18T00:33:30;209.20;;;51.93;;
38629;SDS011;24384;51.988;4.644;2022-12-18T00:36:20;200.73;;;49.77;;
38629;SDS011;24384;51.988;4.644;2022-12-18T00:39:06;190.33;;;43.77;;
38629;SDS011;24384;51.988;4.644;2022-12-18T00:41:51;144.67;;;39.23;;
38629;SDS011;24384;51.988;4.644;2022-12-18T00:44:56;157.57;;;41.43;;
38629;SDS011;24384;51.988;4.644;2022-12-18T00:47:33;154.70;;;43.10;;
38629;SDS011;24384;51.988;4.644;2022-12-18T00:50:24;144.83;;;39.23;;
38629;SDS011;24384;51.988;4.644;2022-12-18T00:53:30;169.60;;;43.03;;
38629;SDS011;24384;51.988;4.644;2022-12-18T00:56:06;215.07;;;45.57;;
38629;SDS011;24384;51.988;4.644;2022-12-18T00:58:45;249.50;;;44.87;;
38629;SDS011;24384;51.988;4.644;2022-12-18T01:01:23;226.03;;;45.23;;
38629;SDS011;24384;51.988;4.644;2022-12-18T01:03:59;206.00;;;47.07;;
38629;SDS011;24384;51.988;4.644;2022-12-18T01:06:54;210.67;;;43.93;;
38629;SDS011;24384;51.988;4.644;2022-12-18T01:09:33;157.63;;;38.13;;
38629;SDS011;24384;51.988;4.644;2022-12-18T01:12:21;163.70;;;39.37;;
38629;SDS011;24384;51.988;4.644;2022-12-18T01:15:00;243.23;;;43.43;;
38629;SDS011;24384;51.988;4.644;2022-12-18T01:17:38;201.30;;;39.20;;
38629;SDS011;24384;51.988;4.644;2022-12-18T01:20:18;141.07;;;26.90;;
38629;SDS011;24384;51.988;4.644;2022-12-18T01:23:04;115.17;;;30.80;;
38629;SDS011;24384;51.988;4.644;2022-12-18T01:25:52;117.77;;;29.97;;
38629;SDS011;24384;51.988;4.644;2022-12-18T01:28:40;209.88;;;40.97;;
38629;SDS011;24384;51.988;4.644;2022-12-18T01:31:16;149.00;;;33.93;;
38629;SDS011;24384;51.988;4.644;2022-12-18T01:33:56;111.10;;;29.70;;
38629;SDS011;24384;51.988;4.644;2022-12-18T01:36:43;116.13;;;25.37;;
38629;SDS011;24384;51.988;4.644;2022-12-18T01:39:21;118.47;;;32.53;;
38629;SDS011;24384;51.988;4.644;2022-12-18T01:42:00;116.67;;;31.70;;
38629;SDS011;24384;51.988;4.644;2022-12-18T01:45:03;90.90;;;31.93;;
38629;SDS011;24384;51.988;4.644;2022-12-18T01:47:59;121.27;;;32.30;;
38629;SDS011;24384;51.988;4.644;2022-12-18T01:50:40;96.37;;;28.40;;
38629;SDS011;24384;51.988;4.644;2022-12-18T01:53:19;158.57;;;33.57;;
38629;SDS011;24384;51.988;4.644;2022-12-18T01:56:02;100.60;;;28.47;;
38629;SDS011;24384;51.988;4.644;2022-12-18T01:59:03;127.70;;;33.00;;
38629;SDS011;24384;51.988;4.644;2022-12-18T02:01:51;192.77;;;33.40;;
38629;SDS011;24384;51.988;4.644;2022-12-18T02:04:27;120.37;;;34.03;;
38629;SDS011;24384;51.988;4.644;2022-12-18T02:10:25;97.23;;;26.50;;
38629;SDS011;24384;51.988;4.644;2022-12-18T02:16:13;110.10;;;31.48;;
38629;SDS011;24384;51.988;4.644;2022-12-18T02:19:00;148.32;;;36.10;;
38629;SDS011;24384;51.988;4.644;2022-12-18T02:27:54;144.60;;;33.53;;
38629;SDS011;24384;51.988;4.644;2022-12-18T02:30:37;118.10;;;28.10;;
38629;SDS011;24384;51.988;4.644;2022-12-18T02:33:13;134.40;;;30.73;;
38629;SDS011;24384;51.988;4.644;2022-12-18T02:35:50;127.63;;;31.57;;
38629;SDS011;24384;51.988;4.644;2022-12-18T02:38:32;95.33;;;25.97;;
38629;SDS011;24384;51.988;4.644;2022-12-18T02:41:29;90.67;;;28.27;;
38629;SDS011;24384;51.988;4.644;2022-12-18T02:44:16;90.57;;;29.47;;
38629;SDS011;24384;51.988;4.644;2022-12-18T02:46:52;84.60;;;27.20;;
38629;SDS011;24384;51.988;4.644;2022-12-18T02:49:44;93.70;;;29.03;;
38629;SDS011;24384;51.988;4.644;2022-12-18T03:04:59;86.87;;;27.30;;
38629;SDS011;24384;51.988;4.644;2022-12-18T03:07:49;95.30;;;29.70;;
38629;SDS011;24384;51.988;4.644;2022-12-18T03:10:38;89.13;;;26.53;;
38629;SDS011;24384;51.988;4.644;2022-12-18T03:13:18;100.60;;;31.47;;
38629;SDS011;24384;51.988;4.644;2022-12-18T03:16:01;88.03;;;27.00;;
38629;SDS011;24384;51.988;4.644;2022-12-18T03:18:48;76.63;;;22.67;;
38629;SDS011;24384;51.988;4.644;2022-12-18T03:21:49;77.70;;;25.93;;
38629;SDS011;24384;51.988;4.644;2022-12-18T03:24:30;74.37;;;24.43;;
38629;SDS011;24384;51.988;4.644;2022-12-18T03:32:29;129.63;;;25.08;;
38629;SDS011;24384;51.988;4.644;2022-12-18T03:35:21;64.83;;;20.83;;
38629;SDS011;24384;51.988;4.644;2022-12-18T03:37:56;94.93;;;27.30;;
38629;SDS011;24384;51.988;4.644;2022-12-18T03:40:40;84.47;;;24.70;;
38629;SDS011;24384;51.988;4.644;2022-12-18T03:43:22;89.53;;;24.87;;
38629;SDS011;24384;51.988;4.644;2022-12-18T03:46:07;87.37;;;20.63;;
38629;SDS011;24384;51.988;4.644;2022-12-18T03:49:02;77.30;;;22.63;;
38629;SDS011;24384;51.988;4.644;2022-12-18T03:52:06;70.37;;;26.37;;
38629;SDS011;24384;51.988;4.644;2022-12-18T03:55:05;71.93;;;25.20;;
38629;SDS011;24384;51.988;4.644;2022-12-18T03:57:37;71.57;;;23.20;;
38629;SDS011;24384;51.988;4.644;2022-12-18T04:00:20;74.20;;;25.60;;
38629;SDS011;24384;51.988;4.644;2022-12-18T04:03:02;64.27;;;23.87;;
38629;SDS011;24384;51.988;4.644;2022-12-18T04:05:46;55.13;;;22.87;;
38629;SDS011;24384;51.988;4.644;2022-12-18T04:08:25;80.10;;;24.73;;
38629;SDS011;24384;51.988;4.644;2022-12-18T04:11:10;77.72;;;26.52;;
38629;SDS011;24384;51.988;4.644;2022-12-18T04:16:57;63.13;;;23.93;;
38629;SDS011;24384;51.988;4.644;2022-12-18T04:19:35;61.50;;;22.93;;
38629;SDS011;24384;51.988;4.644;2022-12-18T04:22:14;69.37;;;24.77;;
38629;SDS011;24384;51.988;4.644;2022-12-18T04:24:50;56.57;;;23.73;;
38629;SDS011;24384;51.988;4.644;2022-12-18T04:27:49;96.00;;;26.77;;
38629;SDS011;24384;51.988;4.644;2022-12-18T04:33:21;84.97;;;23.60;;
38629;SDS011;24384;51.988;4.644;2022-12-18T04:36:02;77.97;;;24.80;;
38629;SDS011;24384;51.988;4.644;2022-12-18T04:38:33;130.27;;;30.00;;
38629;SDS011;24384;51.988;4.644;2022-12-18T04:41:09;115.70;;;27.40;;
38629;SDS011;24384;51.988;4.644;2022-12-18T04:43:45;81.33;;;24.17;;
38629;SDS011;24384;51.988;4.644;2022-12-18T04:46:21;114.97;;;25.67;;
38629;SDS011;24384;51.988;4.644;2022-12-18T04:48:59;117.90;;;26.60;;
38629;SDS011;24384;51.988;4.644;2022-12-18T04:51:46;124.80;;;26.67;;
38629;SDS011;24384;51.988;4.644;2022-12-18T04:54:44;307.53;;;35.53;;
38629;SDS011;24384;51.988;4.644;2022-12-18T04:57:13;144.57;;;25.87;;
38629;SDS011;24384;51.988;4.644;2022-12-18T04:59:53;76.43;;;24.43;;
38629;SDS011;24384;51.988;4.644;2022-12-18T05:02:31;66.00;;;24.40;;
38629;SDS011;24384;51.988;4.644;2022-12-18T05:05:14;73.53;;;24.40;;
38629;SDS011;24384;51.988;4.644;2022-12-18T05:08:10;57.53;;;22.60;;
38629;SDS011;24384;51.988;4.644;2022-12-18T05:10:41;51.30;;;22.37;;
38629;SDS011;24384;51.988;4.644;2022-12-18T05:13:17;57.73;;;24.03;;
38629;SDS011;24384;51.988;4.644;2022-12-18T05:15:58;53.77;;;23.50;;
38629;SDS011;24384;51.988;4.644;2022-12-18T05:18:37;62.33;;;27.10;;
38629;SDS011;24384;51.988;4.644;2022-12-18T05:21:12;64.00;;;26.13;;
38629;SDS011;24384;51.988;4.644;2022-12-18T05:23:52;64.93;;;26.07;;
38629;SDS011;24384;51.988;4.644;2022-12-18T05:26:37;58.67;;;22.97;;
38629;SDS011;24384;51.988;4.644;2022-12-18T05:29:18;58.77;;;23.43;;
38629;SDS011;24384;51.988;4.644;2022-12-18T05:32:05;55.83;;;23.77;;
38629;SDS011;24384;51.988;4.644;2022-12-18T05:34:51;56.47;;;24.00;;
38629;SDS011;24384;51.988;4.644;2022-12-18T05:37:27;58.33;;;24.63;;
38629;SDS011;24384;51.988;4.644;2022-12-18T05:40:10;51.87;;;22.13;;
38629;SDS011;24384;51.988;4.644;2022-12-18T05:42:47;50.67;;;21.83;;
38629;SDS011;24384;51.988;4.644;2022-12-18T05:45:23;49.67;;;22.30;;
38629;SDS011;24384;51.988;4.644;2022-12-18T05:48:01;51.50;;;22.70;;
38629;SDS011;24384;51.988;4.644;2022-12-18T05:50:38;60.70;;;26.07;;
38629;SDS011;24384;51.988;4.644;2022-12-18T05:53:20;55.53;;;22.57;;
38629;SDS011;24384;51.988;4.644;2022-12-18T05:55:59;61.67;;;23.90;;
38629;SDS011;24384;51.988;4.644;2022-12-18T05:58:36;54.20;;;22.17;;
38629;SDS011;24384;51.988;4.644;2022-12-18T06:01:20;51.30;;;23.07;;
38629;SDS011;24384;51.988;4.644;2022-12-18T06:04:04;41.13;;;19.07;;
38629;SDS011;24384;51.988;4.644;2022-12-18T06:06:43;51.47;;;21.83;;
38629;SDS011;24384;51.988;4.644;2022-12-18T06:09:22;51.37;;;22.13;;
38629;SDS011;24384;51.988;4.644;2022-12-18T06:12:06;56.13;;;21.83;;
38629;SDS011;24384;51.988;4.644;2022-12-18T06:14:38;44.93;;;19.90;;
38629;SDS011;24384;51.988;4.644;2022-12-18T06:17:16;49.77;;;19.17;;
38629;SDS011;24384;51.988;4.644;2022-12-18T06:19:52;37.53;;;19.10;;
38629;SDS011;24384;51.988;4.644;2022-12-18T06:22:42;45.80;;;18.07;;
38629;SDS011;24384;51.988;4.644;2022-12-18T06:25:19;37.33;;;18.57;;
38629;SDS011;24384;51.988;4.644;2022-12-18T06:28:04;42.87;;;18.47;;
38629;SDS011;24384;51.988;4.644;2022-12-18T06:30:40;45.57;;;19.07;;
38629;SDS011;24384;51.988;4.644;2022-12-18T06:33:27;42.73;;;19.57;;
38629;SDS011;24384;51.988;4.644;2022-12-18T06:36:11;48.05;;;20.88;;
38629;SDS011;24384;51.988;4.644;2022-12-18T06:38:57;42.77;;;20.00;;
38629;SDS011;24384;51.988;4.644;2022-12-18T06:41:33;45.95;;;18.27;;
38629;SDS011;24384;51.988;4.644;2022-12-18T06:44:17;32.50;;;16.03;;
38629;SDS011;24384;51.988;4.644;2022-12-18T06:47:11;39.33;;;17.73;;
38629;SDS011;24384;51.988;4.644;2022-12-18T06:52:26;39.80;;;17.23;;
38629;SDS011;24384;51.988;4.644;2022-12-18T06:55:10;44.30;;;18.23;;
38629;SDS011;24384;51.988;4.644;2022-12-18T06:57:57;35.28;;;17.38;;
38629;SDS011;24384;51.988;4.644;2022-12-18T07:00:36;42.27;;;16.90;;
38629;SDS011;24384;51.988;4.644;2022-12-18T07:03:23;41.40;;;18.17;;
38629;SDS011;24384;51.988;4.644;2022-12-18T07:06:01;35.47;;;16.10;;
38629;SDS011;24384;51.988;4.644;2022-12-18T07:08:41;33.37;;;17.10;;
38629;SDS011;24384;51.988;4.644;2022-12-18T07:11:17;35.43;;;16.97;;
38629;SDS011;24384;51.988;4.644;2022-12-18T07:13:56;39.73;;;16.63;;
38629;SDS011;24384;51.988;4.644;2022-12-18T07:16:33;34.43;;;16.10;;
38629;SDS011;24384;51.988;4.644;2022-12-18T07:19:12;29.07;;;14.17;;
38629;SDS011;24384;51.988;4.644;2022-12-18T07:21:50;35.70;;;17.67;;
38629;SDS011;24384;51.988;4.644;2022-12-18T07:24:21;36.10;;;16.67;;
38629;SDS011;24384;51.988;4.644;2022-12-18T07:27:02;40.80;;;16.57;;
38629;SDS011;24384;51.988;4.644;2022-12-18T07:29:39;30.23;;;15.90;;
38629;SDS011;24384;51.988;4.644;2022-12-18T07:32:18;40.00;;;17.30;;
38629;SDS011;24384;51.988;4.644;2022-12-18T07:34:54;33.77;;;17.13;;
38629;SDS011;24384;51.988;4.644;2022-12-18T07:37:30;36.67;;;17.17;;
38629;SDS011;24384;51.988;4.644;2022-12-18T07:40:10;35.23;;;16.30;;
38629;SDS011;24384;51.988;4.644;2022-12-18T07:42:48;31.33;;;14.63;;
38629;SDS011;24384;51.988;4.644;2022-12-18T07:45:24;39.10;;;16.13;;
38629;SDS011;24384;51.988;4.644;2022-12-18T07:48:03;35.73;;;17.70;;
38629;SDS011;24384;51.988;4.644;2022-12-18T07:50:40;33.67;;;14.37;;
38629;SDS011;24384;51.988;4.644;2022-12-18T07:56:36;41.77;;;16.30;;
38629;SDS011;24384;51.988;4.644;2022-12-18T08:02:45;33.77;;;15.27;;
38629;SDS011;24384;51.988;4.644;2022-12-18T08:05:36;34.30;;;15.93;;
38629;SDS011;24384;51.988;4.644;2022-12-18T08:08:25;28.10;;;14.03;;
38629;SDS011;24384;51.988;4.644;2022-12-18T08:11:16;38.47;;;15.77;;
38629;SDS011;24384;51.988;4.644;2022-12-18T08:13:54;30.57;;;13.93;;
38629;SDS011;24384;51.988;4.644;2022-12-18T08:17:00;32.73;;;14.90;;
38629;SDS011;24384;51.988;4.644;2022-12-18T08:20:15;26.53;;;14.13;;
38629;SDS011;24384;51.988;4.644;2022-12-18T08:23:22;30.60;;;13.53;;
38629;SDS011;24384;51.988;4.644;2022-12-18T08:28:59;29.10;;;14.73;;
38629;SDS011;24384;51.988;4.644;2022-12-18T08:32:13;26.33;;;13.17;;
38629;SDS011;24384;51.988;4.644;2022-12-18T08:34:59;29.63;;;14.65;;
38629;SDS011;24384;51.988;4.644;2022-12-18T08:37:42;29.43;;;14.40;;
38629;SDS011;24384;51.988;4.644;2022-12-18T08:40:18;29.40;;;13.53;;
38629;SDS011;24384;51.988;4.644;2022-12-18T08:42:44;27.30;;;14.53;;
38629;SDS011;24384;51.988;4.644;2022-12-18T08:45:33;28.10;;;12.60;;
38629;SDS011;24384;51.988;4.644;2022-12-18T08:48:21;27.50;;;13.73;;
38629;SDS011;24384;51.988;4.644;2022-12-18T08:50:59;29.17;;;13.57;;
38629;SDS011;24384;51.988;4.644;2022-12-18T08:53:40;27.07;;;13.50;;
38629;SDS011;24384;51.988;4.644;2022-12-18T08:56:20;28.63;;;14.03;;
38629;SDS011;24384;51.988;4.644;2022-12-18T08:58:57;25.20;;;13.17;;
38629;SDS011;24384;51.988;4.644;2022-12-18T09:01:34;26.47;;;13.53;;
38629;SDS011;24384;51.988;4.644;2022-12-18T09:04:10;23.67;;;13.03;;
38629;SDS011;24384;51.988;4.644;2022-12-18T09:06:58;25.37;;;12.23;;
38629;SDS011;24384;51.988;4.644;2022-12-18T09:09:44;23.73;;;13.93;;
38629;SDS011;24384;51.988;4.644;2022-12-18T09:12:28;26.90;;;13.03;;
38629;SDS011;24384;51.988;4.644;2022-12-18T09:15:08;29.70;;;14.83;;
38629;SDS011;24384;51.988;4.644;2022-12-18T09:17:44;27.73;;;13.17;;
38629;SDS011;24384;51.988;4.644;2022-12-18T09:20:20;23.40;;;11.80;;
38629;SDS011;24384;51.988;4.644;2022-12-18T09:23:00;25.90;;;13.57;;
38629;SDS011;24384;51.988;4.644;2022-12-18T09:25:39;24.60;;;12.77;;
38629;SDS011;24384;51.988;4.644;2022-12-18T09:28:16;23.97;;;11.77;;
38629;SDS011;24384;51.988;4.644;2022-12-18T09:30:54;27.43;;;14.10;;
38629;SDS011;24384;51.988;4.644;2022-12-18T09:36:06;26.70;;;11.20;;
38629;SDS011;24384;51.988;4.644;2022-12-18T09:38:50;24.13;;;13.70;;
38629;SDS011;24384;51.988;4.644;2022-12-18T09:41:35;26.20;;;12.57;;
38629;SDS011;24384;51.988;4.644;2022-12-18T09:49:44;24.50;;;13.10;;
38629;SDS011;24384;51.988;4.644;2022-12-18T09:52:27;23.33;;;11.70;;
38629;SDS011;24384;51.988;4.644;2022-12-18T09:55:23;24.10;;;12.98;;
38629;SDS011;24384;51.988;4.644;2022-12-18T10:00:52;26.27;;;14.63;;
38629;SDS011;24384;51.988;4.644;2022-12-18T10:03:21;25.60;;;13.07;;
38629;SDS011;24384;51.988;4.644;2022-12-18T10:13:46;20.13;;;10.27;;
38629;SDS011;24384;51.988;4.644;2022-12-18T10:19:15;32.60;;;15.13;;
38629;SDS011;24384;51.988;4.644;2022-12-18T10:27:12;26.70;;;14.77;;
38629;SDS011;24384;51.988;4.644;2022-12-18T10:29:41;20.77;;;11.53;;
38629;SDS011;24384;51.988;4.644;2022-12-18T10:32:12;25.87;;;13.23;;
38629;SDS011;24384;51.988;4.644;2022-12-18T10:34:40;31.40;;;13.17;;
38629;SDS011;24384;51.988;4.644;2022-12-18T10:37:06;26.97;;;13.00;;
38629;SDS011;24384;51.988;4.644;2022-12-18T10:39:39;23.47;;;12.77;;
38629;SDS011;24384;51.988;4.644;2022-12-18T10:42:14;26.70;;;12.77;;
38629;SDS011;24384;51.988;4.644;2022-12-18T10:44:42;24.40;;;13.23;;
38629;SDS011;24384;51.988;4.644;2022-12-18T10:47:11;28.43;;;14.07;;
38629;SDS011;24384;51.988;4.644;2022-12-18T10:49:42;27.70;;;13.90;;
38629;SDS011;24384;51.988;4.644;2022-12-18T10:52:20;23.23;;;12.40;;
38629;SDS011;24384;51.988;4.644;2022-12-18T10:54:54;25.87;;;14.40;;
38629;SDS011;24384;51.988;4.644;2022-12-18T10:59:57;25.73;;;14.10;;
38629;SDS011;24384;51.988;4.644;2022-12-18T11:02:34;28.77;;;13.33;;
38629;SDS011;24384;51.988;4.644;2022-12-18T11:05:01;25.70;;;13.37;;
38629;SDS011;24384;51.988;4.644;2022-12-18T11:07:47;34.40;;;14.53;;
38629;SDS011;24384;51.988;4.644;2022-12-18T11:10:19;24.47;;;13.77;;
38629;SDS011;24384;51.988;4.644;2022-12-18T11:12:46;28.67;;;13.67;;
38629;SDS011;24384;51.988;4.644;2022-12-18T11:15:21;23.03;;;13.13;;
38629;SDS011;24384;51.988;4.644;2022-12-18T11:17:51;28.53;;;13.83;;
38629;SDS011;24384;51.988;4.644;2022-12-18T11:20:27;26.53;;;13.57;;
38629;SDS011;24384;51.988;4.644;2022-12-18T11:23:01;24.30;;;13.40;;
38629;SDS011;24384;51.988;4.644;2022-12-18T11:25:28;32.00;;;14.23;;
38629;SDS011;24384;51.988;4.644;2022-12-18T11:27:55;29.27;;;15.37;;
38629;SDS011;24384;51.988;4.644;2022-12-18T11:30:27;29.03;;;14.03;;
38629;SDS011;24384;51.988;4.644;2022-12-18T11:32:56;23.63;;;14.03;;
38629;SDS011;24384;51.988;4.644;2022-12-18T11:37:54;32.70;;;13.97;;
38629;SDS011;24384;51.988;4.644;2022-12-18T11:40:30;27.60;;;13.40;;
38629;SDS011;24384;51.988;4.644;2022-12-18T11:43:06;25.20;;;14.53;;
38629;SDS011;24384;51.988;4.644;2022-12-18T11:45:42;31.27;;;15.43;;
38629;SDS011;24384;51.988;4.644;2022-12-18T11:48:14;29.50;;;14.87;;
38629;SDS011;24384;51.988;4.644;2022-12-18T11:53:27;30.80;;;17.03;;
38629;SDS011;24384;51.988;4.644;2022-12-18T11:58:47;27.07;;;15.87;;
38629;SDS011;24384;51.988;4.644;2022-12-18T12:04:35;22.90;;;12.93;;
38629;SDS011;24384;51.988;4.644;2022-12-18T12:19:22;25.07;;;13.63;;
38629;SDS011;24384;51.988;4.644;2022-12-18T12:22:21;30.30;;;16.20;;
38629;SDS011;24384;51.988;4.644;2022-12-18T12:40:49;25.13;;;13.60;;
38629;SDS011;24384;51.988;4.644;2022-12-18T12:43:25;21.30;;;12.37;;
38629;SDS011;24384;51.988;4.644;2022-12-18T12:46:07;32.17;;;16.87;;
38629;SDS011;24384;51.988;4.644;2022-12-18T12:51:11;26.80;;;15.30;;
38629;SDS011;24384;51.988;4.644;2022-12-18T12:53:50;26.60;;;14.57;;
38629;SDS011;24384;51.988;4.644;2022-12-18T12:56:17;31.50;;;16.87;;
38629;SDS011;24384;51.988;4.644;2022-12-18T13:04:24;27.97;;;15.60;;
38629;SDS011;24384;51.988;4.644;2022-12-18T13:09:33;30.43;;;15.00;;
38629;SDS011;24384;51.988;4.644;2022-12-18T13:12:03;28.47;;;14.50;;
38629;SDS011;24384;51.988;4.644;2022-12-18T13:14:53;30.33;;;15.80;;
38629;SDS011;24384;51.988;4.644;2022-12-18T13:17:36;29.50;;;14.60;;
38629;SDS011;24384;51.988;4.644;2022-12-18T13:20:09;26.07;;;14.83;;
38629;SDS011;24384;51.988;4.644;2022-12-18T13:22:40;25.15;;;14.15;;
38629;SDS011;24384;51.988;4.644;2022-12-18T13:28:05;24.03;;;13.77;;
38629;SDS011;24384;51.988;4.644;2022-12-18T13:30:51;31.03;;;14.70;;
38629;SDS011;24384;51.988;4.644;2022-12-18T13:39:38;32.07;;;16.33;;
38629;SDS011;24384;51.988;4.644;2022-12-18T13:44:25;29.03;;;15.37;;
38629;SDS011;24384;51.988;4.644;2022-12-18T13:46:58;28.83;;;15.30;;
38629;SDS011;24384;51.988;4.644;2022-12-18T13:52:15;31.00;;;17.43;;
38629;SDS011;24384;51.988;4.644;2022-12-18T13:54:44;31.37;;;16.53;;
38629;SDS011;24384;51.988;4.644;2022-12-18T13:57:31;33.03;;;17.03;;
38629;SDS011;24384;51.988;4.644;2022-12-18T14:02:44;26.50;;;14.50;;
38629;SDS011;24384;51.988;4.644;2022-12-18T14:10:26;33.80;;;16.60;;
38629;SDS011;24384;51.988;4.644;2022-12-18T14:12:52;29.73;;;16.47;;
38629;SDS011;24384;51.988;4.644;2022-12-18T14:17:52;26.20;;;13.77;;
38629;SDS011;24384;51.988;4.644;2022-12-18T14:20:21;23.60;;;12.37;;
38629;SDS011;24384;51.988;4.644;2022-12-18T14:22:49;25.97;;;14.43;;
38629;SDS011;24384;51.988;4.644;2022-12-18T14:25:19;29.77;;;16.07;;
38629;SDS011;24384;51.988;4.644;2022-12-18T14:30:37;28.77;;;14.57;;
38629;SDS011;24384;51.988;4.644;2022-12-18T14:33:10;25.03;;;14.27;;
38629;SDS011;24384;51.988;4.644;2022-12-18T14:36:04;31.73;;;17.63;;
38629;SDS011;24384;51.988;4.644;2022-12-18T14:38:30;31.83;;;16.23;;
38629;SDS011;24384;51.988;4.644;2022-12-18T14:41:01;31.83;;;15.93;;
38629;SDS011;24384;51.988;4.644;2022-12-18T14:43:29;34.50;;;16.83;;
38629;SDS011;24384;51.988;4.644;2022-12-18T14:45:57;30.40;;;17.67;;
38629;SDS011;24384;51.988;4.644;2022-12-18T14:48:37;25.67;;;15.27;;
38629;SDS011;24384;51.988;4.644;2022-12-18T14:53:39;23.53;;;12.90;;
38629;SDS011;24384;51.988;4.644;2022-12-18T14:56:14;33.97;;;17.03;;
38629;SDS011;24384;51.988;4.644;2022-12-18T15:01:45;30.35;;;16.77;;
38629;SDS011;24384;51.988;4.644;2022-12-18T15:04:23;28.38;;;14.55;;
38629;SDS011;24384;51.988;4.644;2022-12-18T15:07:09;28.70;;;15.10;;
38629;SDS011;24384;51.988;4.644;2022-12-18T15:12:04;34.90;;;14.40;;
38629;SDS011;24384;51.988;4.644;2022-12-18T15:14:34;30.20;;;16.13;;
38629;SDS011;24384;51.988;4.644;2022-12-18T15:17:18;31.83;;;17.53;;
38629;SDS011;24384;51.988;4.644;2022-12-18T15:19:46;30.03;;;16.30;;
38629;SDS011;24384;51.988;4.644;2022-12-18T15:24:55;31.23;;;17.40;;
38629;SDS011;24384;51.988;4.644;2022-12-18T15:27:35;30.93;;;18.70;;
38629;SDS011;24384;51.988;4.644;2022-12-18T15:32:34;32.07;;;16.17;;
38629;SDS011;24384;51.988;4.644;2022-12-18T15:35:02;39.07;;;18.87;;
38629;SDS011;24384;51.988;4.644;2022-12-18T15:37:33;27.07;;;15.70;;
38629;SDS011;24384;51.988;4.644;2022-12-18T15:39:59;31.83;;;16.57;;
38629;SDS011;24384;51.988;4.644;2022-12-18T15:42:24;34.50;;;18.50;;
38629;SDS011;24384;51.988;4.644;2022-12-18T15:45:11;25.83;;;13.90;;
38629;SDS011;24384;51.988;4.644;2022-12-18T15:47:37;29.63;;;17.07;;
38629;SDS011;24384;51.988;4.644;2022-12-18T15:50:03;33.13;;;18.73;;
38629;SDS011;24384;51.988;4.644;2022-12-18T15:52:28;30.70;;;17.37;;
38629;SDS011;24384;51.988;4.644;2022-12-18T15:54:55;33.33;;;16.03;;
38629;SDS011;24384;51.988;4.644;2022-12-18T15:57:39;25.08;;;13.93;;
38629;SDS011;24384;51.988;4.644;2022-12-18T16:00:04;35.87;;;15.93;;
38629;SDS011;24384;51.988;4.644;2022-12-18T16:02:30;38.40;;;17.13;;
38629;SDS011;24384;51.988;4.644;2022-12-18T16:04:58;27.87;;;17.00;;
38629;SDS011;24384;51.988;4.644;2022-12-18T16:07:23;31.43;;;16.63;;
38629;SDS011;24384;51.988;4.644;2022-12-18T16:09:49;31.23;;;16.27;;
38629;SDS011;24384;51.988;4.644;2022-12-18T16:12:18;38.63;;;17.73;;
38629;SDS011;24384;51.988;4.644;2022-12-18T16:14:45;36.00;;;18.27;;
38629;SDS011;24384;51.988;4.644;2022-12-18T16:17:11;31.70;;;16.67;;
38629;SDS011;24384;51.988;4.644;2022-12-18T16:19:37;33.27;;;17.80;;
38629;SDS011;24384;51.988;4.644;2022-12-18T16:22:02;30.90;;;16.20;;
38629;SDS011;24384;51.988;4.644;2022-12-18T16:24:29;33.33;;;17.67;;
38629;SDS011;24384;51.988;4.644;2022-12-18T16:26:56;30.90;;;16.63;;
38629;SDS011;24384;51.988;4.644;2022-12-18T16:29:24;31.17;;;16.53;;
38629;SDS011;24384;51.988;4.644;2022-12-18T16:31:54;32.17;;;16.27;;
38629;SDS011;24384;51.988;4.644;2022-12-18T16:34:28;29.87;;;16.90;;
38629;SDS011;24384;51.988;4.644;2022-12-18T16:36:56;31.20;;;15.93;;
38629;SDS011;24384;51.988;4.644;2022-12-18T16:39:23;35.50;;;19.60;;
38629;SDS011;24384;51.988;4.644;2022-12-18T16:41:49;27.87;;;14.70;;
38629;SDS011;24384;51.988;4.644;2022-12-18T16:44:14;31.50;;;15.80;;
38629;SDS011;24384;51.988;4.644;2022-12-18T16:46:41;28.83;;;15.37;;
38629;SDS011;24384;51.988;4.644;2022-12-18T16:49:13;27.33;;;14.67;;
38629;SDS011;24384;51.988;4.644;2022-12-18T16:51:39;27.53;;;15.17;;
38629;SDS011;24384;51.988;4.644;2022-12-18T16:54:05;28.80;;;14.63;;
38629;SDS011;24384;51.988;4.644;2022-12-18T16:56:31;33.20;;;18.40;;
38629;SDS011;24384;51.988;4.644;2022-12-18T16:58:57;33.57;;;18.13;;
38629;SDS011;24384;51.988;4.644;2022-12-18T17:01:25;35.03;;;18.60;;
38629;SDS011;24384;51.988;4.644;2022-12-18T17:03:52;39.90;;;20.87;;
38629;SDS011;24384;51.988;4.644;2022-12-18T17:06:19;28.70;;;15.47;;
38629;SDS011;24384;51.988;4.644;2022-12-18T17:08:45;32.80;;;17.10;;
38629;SDS011;24384;51.988;4.644;2022-12-18T17:11:10;28.00;;;14.27;;
38629;SDS011;24384;51.988;4.644;2022-12-18T17:13:35;32.77;;;17.47;;
38629;SDS011;24384;51.988;4.644;2022-12-18T17:16:04;41.10;;;17.73;;
38629;SDS011;24384;51.988;4.644;2022-12-18T17:18:31;30.93;;;16.13;;
38629;SDS011;24384;51.988;4.644;2022-12-18T17:20:58;32.27;;;18.57;;
38629;SDS011;24384;51.988;4.644;2022-12-18T17:23:25;29.23;;;16.77;;
38629;SDS011;24384;51.988;4.644;2022-12-18T17:26:01;32.77;;;16.43;;
38629;SDS011;24384;51.988;4.644;2022-12-18T17:28:26;29.97;;;17.50;;
38629;SDS011;24384;51.988;4.644;2022-12-18T17:30:53;34.97;;;18.17;;
38629;SDS011;24384;51.988;4.644;2022-12-18T17:33:19;35.83;;;18.03;;
38629;SDS011;24384;51.988;4.644;2022-12-18T17:35:45;31.93;;;17.80;;
38629;SDS011;24384;51.988;4.644;2022-12-18T17:38:11;36.50;;;18.23;;
38629;SDS011;24384;51.988;4.644;2022-12-18T17:40:37;30.60;;;16.10;;
38629;SDS011;24384;51.988;4.644;2022-12-18T17:43:05;26.63;;;14.73;;
38629;SDS011;24384;51.988;4.644;2022-12-18T17:45:35;28.17;;;16.63;;
38629;SDS011;24384;51.988;4.644;2022-12-18T17:48:02;32.30;;;17.27;;
38629;SDS011;24384;51.988;4.644;2022-12-18T17:50:32;32.13;;;17.80;;
38629;SDS011;24384;51.988;4.644;2022-12-18T17:52:58;34.80;;;18.73;;
38629;SDS011;24384;51.988;4.644;2022-12-18T17:55:24;37.57;;;20.33;;
38629;SDS011;24384;51.988;4.644;2022-12-18T17:57:52;33.20;;;17.73;;
38629;SDS011;24384;51.988;4.644;2022-12-18T18:00:18;34.57;;;17.27;;
38629;SDS011;24384;51.988;4.644;2022-12-18T18:02:43;34.77;;;17.63;;
38629;SDS011;24384;51.988;4.644;2022-12-18T18:05:09;33.47;;;18.57;;
38629;SDS011;24384;51.988;4.644;2022-12-18T18:07:36;32.00;;;16.20;;